Time;durP1;ratioP1;P1;durP2;ratioP2;P2;SDS_P1;SDS_P2;PMS_P1;PMS_P2;Temp;Humidity;BMP_temperature;BMP_pressure;BME280_temperature;BME280_humidity;BME280_pressure;Samples;Min_cycle;Max_cycle;Signal;HPM_P1;HPM_P2
2022/10/04 00:01:21;;;;;;;;;33.00;31.50;;;;;;;;5078282;28;45461;-78
2022/10/04 00:03:49;;;;;;;;;32.75;32.25;;;;;;;;5076784;28;46454;-79
2022/10/04 00:06:23;;;;;;;;;29.75;29.50;;;;;;;;5076473;28;45442;-79
2022/10/04 00:08:48;;;;;;;;;33.00;30.25;;;;;;;;5080306;28;45349;-78
2022/10/04 00:11:21;;;;;;;;;30.25;30.25;;;;;;;;5080332;28;45577;-77
2022/10/04 00:13:49;;;;;;;;;31.75;30.50;;;;;;;;5082841;28;45575;-78
2022/10/04 00:16:22;;;;;;;;;31.25;30.75;;;;;;;;5080138;28;45433;-79
2022/10/04 00:18:47;;;;;;;;;28.25;28.00;;;;;;;;5079930;28;45395;-79
2022/10/04 00:21:12;;;;;;;;;29.25;28.75;;;;;;;;5061471;28;45668;-78
2022/10/04 00:23:38;;;;;;;;;33.00;32.00;;;;;;;;5063966;28;46684;-78
2022/10/04 00:26:04;;;;;;;;;32.50;31.00;;;;;;;;5091381;28;45279;-79
2022/10/04 00:28:30;;;;;;;;;31.00;30.25;;;;;;;;5086016;28;45398;-78
2022/10/04 00:31:06;;;;;;;;;30.00;30.00;;;;;;;;5080715;28;45542;-78
2022/10/04 00:33:40;;;;;;;;;31.25;30.25;;;;;;;;5079496;28;46359;-78
2022/10/04 00:36:26;;;;;;;;;35.25;33.50;;;;;;;;5062070;28;45347;-79
2022/10/04 00:39:03;;;;;;;;;26.00;26.00;;;;;;;;5048302;28;45298;-78
2022/10/04 00:41:47;;;;;;;;;35.00;33.00;;;;;;;;5083140;28;45403;-81
2022/10/04 00:44:15;;;;;;;;;32.00;30.75;;;;;;;;5080786;28;45650;-80
2022/10/04 00:46:41;;;;;;;;;28.25;28.25;;;;;;;;5080129;28;45499;-79
2022/10/04 00:49:08;;;;;;;;;31.00;29.75;;;;;;;;5080263;28;45345;-79
2022/10/04 00:51:38;;;;;;;;;32.75;31.25;;;;;;;;5081322;28;45416;-79
2022/10/04 00:54:13;;;;;;;;;37.00;32.75;;;;;;;;5080374;28;46603;-81
2022/10/04 00:56:41;;;;;;;;;33.75;32.00;;;;;;;;5080902;28;45485;-81
2022/10/04 00:59:09;;;;;;;;;30.25;30.00;;;;;;;;5079667;28;45372;-79
2022/10/04 01:01:36;;;;;;;;;30.75;29.25;;;;;;;;5080491;28;45399;-81
2022/10/04 01:04:04;;;;;;;;;32.50;31.50;;;;;;;;5062070;28;47353;-80
2022/10/04 01:06:30;;;;;;;;;31.25;31.00;;;;;;;;5080308;28;45378;-79
2022/10/04 01:09:09;;;;;;;;;38.50;33.00;;;;;;;;5080554;28;45310;-80
2022/10/04 01:11:36;;;;;;;;;29.75;29.25;;;;;;;;5062735;28;46198;-80
2022/10/04 01:14:10;;;;;;;;;32.75;31.25;;;;;;;;5080764;28;45400;-79
2022/10/04 01:16:36;;;;;;;;;34.00;32.75;;;;;;;;5082452;28;45411;-80
2022/10/04 01:19:20;;;;;;;;;26.50;26.50;;;;;;;;5082883;28;45362;-78
2022/10/04 01:21:46;;;;;;;;;31.50;31.50;;;;;;;;5085462;28;45371;-78
2022/10/04 01:24:11;;;;;;;;;27.25;25.75;;;;;;;;5088058;28;45463;-78
2022/10/04 01:26:45;;;;;;;;;27.75;27.75;;;;;;;;5089899;28;44696;-79
2022/10/04 01:29:10;;;;;;;;;30.50;30.50;;;;;;;;5082501;28;45344;-79
2022/10/04 01:31:37;;;;;;;;;27.50;26.75;;;;;;;;5081715;28;45653;-78
2022/10/04 01:34:06;;;;;;;;;32.75;31.75;;;;;;;;5080181;28;46223;-77
2022/10/04 01:36:32;;;;;;;;;27.75;27.75;;;;;;;;5078991;27;45392;-77
2022/10/04 01:38:58;;;;;;;;;28.50;28.50;;;;;;;;5079439;28;45414;-77
2022/10/04 01:41:28;;;;;;;;;31.00;30.00;;;;;;;;5084504;27;45311;-78
2022/10/04 01:43:57;;;;;;;;;32.25;30.00;;;;;;;;5082074;28;46527;-79
2022/10/04 01:46:24;;;;;;;;;33.50;30.50;;;;;;;;5080589;28;45350;-79
2022/10/04 01:48:51;;;;;;;;;29.50;29.50;;;;;;;;5081247;28;45385;-78
2022/10/04 01:51:25;;;;;;;;;30.00;29.75;;;;;;;;5064360;28;45404;-78
2022/10/04 01:54:03;;;;;;;;;31.00;30.00;;;;;;;;5079996;28;46839;-79
2022/10/04 01:56:52;;;;;;;;;29.50;29.50;;;;;;;;5064932;28;45375;-80
2022/10/04 01:59:24;;;;;;;;;29.75;29.25;;;;;;;;5072520;27;45367;-79
2022/10/04 02:01:53;;;;;;;;;27.50;27.25;;;;;;;;5080580;27;45264;-78
2022/10/04 02:04:29;;;;;;;;;28.75;28.00;;;;;;;;5080614;27;45193;-77
2022/10/04 02:06:55;;;;;;;;;30.00;30.00;;;;;;;;5078024;28;45419;-78
2022/10/04 02:09:25;;;;;;;;;32.50;31.00;;;;;;;;5078793;28;45370;-77
2022/10/04 02:11:51;;;;;;;;;28.25;28.25;;;;;;;;5060534;28;45339;-79
2022/10/04 02:14:19;;;;;;;;;29.50;29.50;;;;;;;;5077942;28;46613;-78
2022/10/04 02:16:46;;;;;;;;;30.25;29.00;;;;;;;;5078273;28;45360;-77
2022/10/04 02:19:11;;;;;;;;;27.25;26.75;;;;;;;;5078470;28;45248;-79
2022/10/04 02:21:37;;;;;;;;;28.00;28.00;;;;;;;;5078630;28;45241;-77
2022/10/04 02:24:03;;;;;;;;;29.00;28.75;;;;;;;;5078703;28;46077;-77
2022/10/04 02:26:29;;;;;;;;;32.00;31.00;;;;;;;;5059995;28;45421;-79
2022/10/04 02:28:54;;;;;;;;;29.50;29.50;;;;;;;;5077618;28;45318;-79
2022/10/04 02:34:04;;;;;;;;;27.75;27.75;;;;;;;;5077349;28;45327;-78
2022/10/04 02:36:30;;;;;;;;;32.25;31.25;;;;;;;;5077455;28;45229;-78
2022/10/04 02:39:01;;;;;;;;;33.50;32.00;;;;;;;;5078190;28;45327;-77
2022/10/04 02:41:30;;;;;;;;;27.50;27.50;;;;;;;;5059173;28;45228;-79
2022/10/04 02:44:16;;;;;;;;;29.00;29.00;;;;;;;;5077398;28;46356;-78
2022/10/04 02:46:51;;;;;;;;;29.50;28.75;;;;;;;;5077798;27;45228;-79
2022/10/04 02:49:19;;;;;;;;;32.00;31.00;;;;;;;;5079462;28;45437;-78
2022/10/04 02:51:49;;;;;;;;;31.00;29.00;;;;;;;;5059057;28;45527;-78
2022/10/04 02:54:26;;;;;;;;;31.75;30.25;;;;;;;;5079224;28;46065;-78
2022/10/04 02:56:52;;;;;;;;;25.50;25.50;;;;;;;;5087373;28;45289;-77
2022/10/04 02:59:17;;;;;;;;;28.25;28.25;;;;;;;;5083537;28;45302;-77
2022/10/04 03:01:51;;;;;;;;;28.75;28.00;;;;;;;;5078064;28;45425;-79
2022/10/04 03:04:19;;;;;;;;;25.50;25.50;;;;;;;;5077853;28;46286;-79
2022/10/04 03:06:45;;;;;;;;;23.50;23.50;;;;;;;;5059475;28;45308;-79
2022/10/04 03:09:12;;;;;;;;;32.00;30.00;;;;;;;;5078239;28;45367;-78
2022/10/04 03:11:39;;;;;;;;;30.75;29.50;;;;;;;;5081461;28;45584;-78
2022/10/04 03:14:15;;;;;;;;;29.00;29.00;;;;;;;;5078218;28;48180;-78
2022/10/04 03:16:42;;;;;;;;;27.00;27.00;;;;;;;;5068279;28;45249;-79
2022/10/04 03:19:09;;;;;;;;;29.50;29.50;;;;;;;;5077411;28;45339;-77
2022/10/04 03:21:36;;;;;;;;;29.75;29.00;;;;;;;;5059492;28;45468;-79
2022/10/04 03:24:02;;;;;;;;;27.00;27.00;;;;;;;;5076426;28;46569;-79
2022/10/04 03:26:40;;;;;;;;;28.25;27.50;;;;;;;;5076480;28;45346;-77
2022/10/04 03:29:09;;;;;;;;;29.75;29.50;;;;;;;;5083908;28;45482;-78
2022/10/04 03:31:36;;;;;;;;;30.00;29.25;;;;;;;;5070807;27;45299;-79
2022/10/04 03:34:01;;;;;;;;;31.75;30.00;;;;;;;;5065524;28;46610;-79
2022/10/04 03:36:27;;;;;;;;;36.50;33.50;;;;;;;;5079911;28;45249;-79
2022/10/04 03:38:53;;;;;;;;;28.50;28.50;;;;;;;;5078249;27;45376;-77
2022/10/04 03:41:19;;;;;;;;;28.25;27.50;;;;;;;;5077709;28;45504;-79
2022/10/04 03:43:45;;;;;;;;;31.00;29.75;;;;;;;;5077655;28;45292;-78
2022/10/04 03:46:12;;;;;;;;;30.50;30.00;;;;;;;;5079707;28;45232;-79
2022/10/04 03:48:40;;;;;;;;;31.75;30.75;;;;;;;;5077586;28;45438;-78
2022/10/04 03:51:06;;;;;;;;;32.75;30.75;;;;;;;;5076727;28;45432;-79
2022/10/04 03:53:42;;;;;;;;;29.00;29.00;;;;;;;;5076213;28;45495;-78
2022/10/04 03:56:12;;;;;;;;;34.00;32.25;;;;;;;;5076154;28;45236;-78
2022/10/04 03:58:37;;;;;;;;;31.25;30.25;;;;;;;;5076312;28;45401;-78
2022/10/04 04:01:21;;;;;;;;;22.25;21.75;;;;;;;;5076606;28;45429;-80
2022/10/04 04:04:01;;;;;;;;;28.25;28.25;;;;;;;;5076116;28;45493;-78
2022/10/04 04:06:39;;;;;;;;;31.50;31.00;;;;;;;;5076962;28;45291;-79
2022/10/04 04:09:05;;;;;;;;;30.75;30.50;;;;;;;;5076354;28;45345;-79
2022/10/04 04:11:31;;;;;;;;;29.75;29.75;;;;;;;;5076790;28;45219;-78
2022/10/04 04:14:13;;;;;;;;;27.50;27.50;;;;;;;;5076499;28;46282;-78
2022/10/04 04:16:39;;;;;;;;;26.25;26.25;;;;;;;;5077234;28;45228;-78
2022/10/04 04:19:10;;;;;;;;;28.25;28.25;;;;;;;;5076763;28;45243;-79
2022/10/04 04:21:36;;;;;;;;;28.25;28.25;;;;;;;;5077974;28;45331;-79
2022/10/04 04:24:04;;;;;;;;;32.75;31.00;;;;;;;;5076119;28;45488;-77
2022/10/04 04:26:41;;;;;;;;;30.75;30.50;;;;;;;;5057667;28;45614;-79
2022/10/04 04:29:10;;;;;;;;;29.50;29.50;;;;;;;;5075441;28;45377;-78
2022/10/04 04:31:44;;;;;;;;;29.75;29.75;;;;;;;;5076210;28;45370;-78
2022/10/04 04:34:15;;;;;;;;;29.00;29.00;;;;;;;;5076187;28;45451;-77
2022/10/04 04:36:41;;;;;;;;;30.50;30.00;;;;;;;;5059182;28;45268;-77
2022/10/04 04:42:02;;;;;;;;;32.50;30.00;;;;;;;;5076018;28;45233;-78
2022/10/04 04:44:28;;;;;;;;;29.75;29.75;;;;;;;;5075206;28;46170;-79
2022/10/04 04:46:55;;;;;;;;;29.50;29.50;;;;;;;;5076174;28;45438;-80
2022/10/04 04:49:22;;;;;;;;;31.25;30.00;;;;;;;;5075973;28;45437;-79
2022/10/04 04:51:52;;;;;;;;;27.00;26.50;;;;;;;;5076361;28;45636;-79
2022/10/04 04:54:19;;;;;;;;;34.75;33.00;;;;;;;;5060687;28;47237;-79
2022/10/04 04:56:46;;;;;;;;;31.75;30.75;;;;;;;;5079791;28;45469;-78
2022/10/04 04:59:12;;;;;;;;;32.25;31.25;;;;;;;;5079963;28;45216;-78
2022/10/04 05:01:42;;;;;;;;;30.75;30.00;;;;;;;;5080562;28;45371;-79
2022/10/04 05:04:08;;;;;;;;;31.00;30.25;;;;;;;;5060993;28;47107;-78
2022/10/04 05:06:34;;;;;;;;;30.25;29.00;;;;;;;;5078982;28;45430;-79
2022/10/04 05:08:59;;;;;;;;;32.50;31.00;;;;;;;;5060828;28;45426;-79
2022/10/04 05:11:28;;;;;;;;;27.00;27.00;;;;;;;;5079794;28;45577;-80
2022/10/04 05:14:05;;;;;;;;;32.50;31.50;;;;;;;;5079112;28;45318;-79
2022/10/04 05:16:43;;;;;;;;;29.00;29.00;;;;;;;;5079067;28;45671;-79
2022/10/04 05:19:16;;;;;;;;;33.00;32.00;;;;;;;;5061730;28;45279;-78
2022/10/04 05:21:46;;;;;;;;;38.50;34.75;;;;;;;;5079457;28;45488;-78
2022/10/04 05:24:22;;;;;;;;;34.00;32.75;;;;;;;;5060852;28;46487;-80
2022/10/04 05:26:53;;;;;;;;;44.00;37.00;;;;;;;;5082614;28;45324;-79
2022/10/04 05:29:20;;;;;;;;;31.00;30.00;;;;;;;;5090202;28;45421;-77
2022/10/04 05:31:59;;;;;;;;;36.75;33.50;;;;;;;;5086158;28;44820;-80
2022/10/04 05:34:26;;;;;;;;;41.50;37.00;;;;;;;;5081800;28;46311;-77
2022/10/04 05:37:10;;;;;;;;;35.25;33.00;;;;;;;;5078966;28;45346;-79
2022/10/04 05:40:04;;;;;;;;;51.75;44.25;;;;;;;;5078977;28;45342;-78
2022/10/04 05:42:38;;;;;;;;;46.00;40.00;;;;;;;;5023131;28;45306;-76
2022/10/04 05:45:19;;;;;;;;;35.75;33.75;;;;;;;;5078602;28;46065;-79
2022/10/04 05:47:52;;;;;;;;;34.50;33.00;;;;;;;;5059762;28;45426;-78
2022/10/04 05:50:39;;;;;;;;;34.25;32.25;;;;;;;;5060516;28;45429;-77
2022/10/04 05:53:25;;;;;;;;;39.00;34.50;;;;;;;;5061584;28;45393;-79
2022/10/04 05:56:04;;;;;;;;;37.00;33.25;;;;;;;;5078677;27;45498;-79
2022/10/04 05:58:30;;;;;;;;;45.25;39.00;;;;;;;;5059787;28;45990;-76
2022/10/04 06:00:58;;;;;;;;;39.25;35.50;;;;;;;;5079050;28;45450;-79
2022/10/04 06:03:44;;;;;;;;;38.75;34.50;;;;;;;;5078390;28;45672;-78
2022/10/04 06:06:12;;;;;;;;;37.75;34.50;;;;;;;;5076699;28;46705;-78
2022/10/04 06:08:44;;;;;;;;;43.50;38.00;;;;;;;;5077527;28;45407;-77
2022/10/04 06:11:29;;;;;;;;;42.25;37.00;;;;;;;;5059490;28;45387;-78
2022/10/04 06:14:03;;;;;;;;;45.00;38.75;;;;;;;;5077765;28;45515;-78
2022/10/04 06:16:40;;;;;;;;;44.00;38.75;;;;;;;;5077907;28;45425;-79
2022/10/04 06:19:17;;;;;;;;;37.00;35.00;;;;;;;;5079565;28;45349;-78
2022/10/04 06:22:01;;;;;;;;;38.50;35.75;;;;;;;;5062721;28;45267;-80
2022/10/04 06:24:31;;;;;;;;;44.75;37.50;;;;;;;;5077998;28;45630;-78
2022/10/04 06:27:15;;;;;;;;;40.75;36.75;;;;;;;;5077809;28;46474;-79
2022/10/04 06:30:02;;;;;;;;;48.00;39.75;;;;;;;;5078294;28;45329;-80
2022/10/04 06:32:30;;;;;;;;;38.75;35.50;;;;;;;;5077282;27;45362;-79
2022/10/04 06:35:01;;;;;;;;;43.75;39.00;;;;;;;;5077469;28;45375;-78
2022/10/04 06:37:30;;;;;;;;;40.50;36.75;;;;;;;;5077621;28;47271;-79
2022/10/04 06:40:08;;;;;;;;;47.00;40.75;;;;;;;;5059226;28;45454;-79
2022/10/04 06:42:45;;;;;;;;;50.25;43.00;;;;;;;;5078276;28;45275;-77
2022/10/04 06:45:29;;;;;;;;;38.50;34.75;;;;;;;;5061396;28;45250;-79
2022/10/04 06:48:27;;;;;;;;;41.25;37.25;;;;;;;;5081822;28;46425;-78
2022/10/04 06:50:52;;;;;;;;;45.75;39.50;;;;;;;;5056675;28;45381;-79
2022/10/04 06:53:29;;;;;;;;;48.80;41.80;;;;;;;;5094789;28;45828;-78
2022/10/04 06:56:15;;;;;;;;;47.00;40.25;;;;;;;;5081019;28;44877;-78
2022/10/04 06:58:52;;;;;;;;;45.00;39.50;;;;;;;;5065259;27;47053;-78
2022/10/04 07:01:28;;;;;;;;;39.75;35.25;;;;;;;;5082489;28;45311;-80
2022/10/04 07:03:53;;;;;;;;;49.75;40.50;;;;;;;;5077950;28;45224;-78
2022/10/04 07:06:25;;;;;;;;;44.25;39.25;;;;;;;;5078900;28;45614;-78
2022/10/04 07:08:54;;;;;;;;;44.00;38.75;;;;;;;;5077264;28;46376;-78
2022/10/04 07:11:20;;;;;;;;;41.50;37.50;;;;;;;;5077278;28;45283;-79
2022/10/04 07:13:52;;;;;;;;;48.75;41.75;;;;;;;;5058498;28;45312;-79
2022/10/04 07:16:36;;;;;;;;;44.75;38.25;;;;;;;;5077194;27;45350;-78
2022/10/04 07:19:08;;;;;;;;;45.00;39.50;;;;;;;;5079417;28;45623;-78
2022/10/04 07:21:46;;;;;;;;;47.75;40.50;;;;;;;;5078313;28;45755;-78
2022/10/04 07:24:17;;;;;;;;;41.75;37.50;;;;;;;;5077974;27;45446;-78
2022/10/04 07:26:48;;;;;;;;;45.00;39.75;;;;;;;;5077591;27;45423;-79
2022/10/04 07:29:19;;;;;;;;;54.00;44.75;;;;;;;;5058105;28;46313;-79
2022/10/04 07:31:46;;;;;;;;;46.25;40.50;;;;;;;;5076516;28;45390;-77
2022/10/04 07:34:19;;;;;;;;;45.75;40.25;;;;;;;;5058408;28;45338;-79
2022/10/04 07:36:50;;;;;;;;;47.50;41.25;;;;;;;;5076605;28;45825;-78
2022/10/04 07:39:17;;;;;;;;;43.25;39.00;;;;;;;;5077807;28;45443;-77
2022/10/04 07:41:56;;;;;;;;;46.00;40.00;;;;;;;;5077777;28;45441;-78
2022/10/04 07:44:31;;;;;;;;;48.25;41.00;;;;;;;;5076792;28;45489;-78
2022/10/04 07:47:07;;;;;;;;;47.50;40.00;;;;;;;;5078790;28;45632;-81
2022/10/04 07:49:38;;;;;;;;;50.00;42.25;;;;;;;;5078788;28;45514;-79
2022/10/04 07:52:22;;;;;;;;;43.00;38.00;;;;;;;;5077192;28;45359;-78
2022/10/04 07:54:53;;;;;;;;;50.00;42.50;;;;;;;;5077537;28;45293;-78
2022/10/04 07:57:21;;;;;;;;;50.00;42.00;;;;;;;;5084040;28;45433;-78
2022/10/04 08:00:06;;;;;;;;;47.75;41.25;;;;;;;;5071182;28;46738;-78
2022/10/04 08:02:37;;;;;;;;;41.00;35.25;;;;;;;;5067530;28;45379;-78
2022/10/04 08:05:12;;;;;;;;;44.00;38.50;;;;;;;;5084081;27;45299;-78
2022/10/04 08:07:45;;;;;;;;;49.75;42.25;;;;;;;;5079734;28;45165;-79
2022/10/04 08:10:12;;;;;;;;;44.50;39.00;;;;;;;;5080304;28;45308;-79
2022/10/04 08:12:40;;;;;;;;;47.75;40.75;;;;;;;;5078765;28;45367;-78
2022/10/04 08:15:18;;;;;;;;;48.75;41.50;;;;;;;;5078995;28;45386;-79
2022/10/04 08:17:43;;;;;;;;;51.75;43.00;;;;;;;;5079425;28;45422;-78
2022/10/04 08:20:13;;;;;;;;;48.25;41.25;;;;;;;;5079113;28;45373;-79
2022/10/04 08:22:49;;;;;;;;;45.75;39.75;;;;;;;;5079669;28;45398;-80
2022/10/04 08:25:22;;;;;;;;;48.50;40.25;;;;;;;;5078217;28;45288;-79
2022/10/04 08:29:41;;;;;;;;;48.00;40.50;;;;;;;;5062531;28;45556;-79
2022/10/04 08:30:47;;;;;;;;;53.00;43.00;;;;;;;;5084397;28;46268;-80
2022/10/04 08:33:21;;;;;;;;;47.50;40.75;;;;;;;;5083230;28;45433;-79
2022/10/04 08:36:18;;;;;;;;;49.75;42.00;;;;;;;;5082674;28;45338;-79
2022/10/04 08:38:48;;;;;;;;;52.50;44.50;;;;;;;;5086454;27;45311;-78
2022/10/04 08:41:32;;;;;;;;;47.25;39.50;;;;;;;;5091748;28;45374;-78
2022/10/04 08:44:09;;;;;;;;;46.00;39.75;;;;;;;;5081515;28;45262;-79
2022/10/04 08:46:53;;;;;;;;;48.50;39.50;;;;;;;;5081519;28;45263;-78
2022/10/04 08:49:37;;;;;;;;;50.25;42.00;;;;;;;;5082953;27;45312;-78
2022/10/04 08:52:20;;;;;;;;;40.25;35.75;;;;;;;;5079689;28;45549;-80
2022/10/04 08:55:10;;;;;;;;;57.75;48.75;;;;;;;;5080114;28;45399;-80
2022/10/04 08:57:36;;;;;;;;;51.50;44.25;;;;;;;;5079954;28;45213;-79
2022/10/04 09:00:20;;;;;;;;;48.25;41.25;;;;;;;;5080756;28;45647;-79
2022/10/04 09:02:45;;;;;;;;;52.00;43.75;;;;;;;;5081693;28;46676;-77
2022/10/04 09:05:19;;;;;;;;;52.50;43.25;;;;;;;;5080070;28;45235;-78
2022/10/04 09:07:51;;;;;;;;;50.50;42.75;;;;;;;;5060610;28;45273;-78
2022/10/04 09:10:19;;;;;;;;;52.25;43.75;;;;;;;;5080551;28;45608;-78
2022/10/04 09:12:53;;;;;;;;;54.75;46.00;;;;;;;;5078960;28;46750;-77
2022/10/04 09:15:25;;;;;;;;;50.00;42.25;;;;;;;;5079245;28;45239;-77
2022/10/04 09:18:14;;;;;;;;;51.25;43.50;;;;;;;;5079493;28;45481;-78
2022/10/04 09:20:58;;;;;;;;;50.50;41.75;;;;;;;;5050846;28;45479;-77
2022/10/04 09:23:30;;;;;;;;;48.25;40.50;;;;;;;;5079429;28;45468;-79
2022/10/04 09:25:55;;;;;;;;;51.50;43.75;;;;;;;;5080727;28;45432;-79
2022/10/04 09:28:39;;;;;;;;;50.00;42.25;;;;;;;;5081471;28;45269;-80
2022/10/04 09:31:23;;;;;;;;;52.75;43.75;;;;;;;;5064867;28;45354;-79
2022/10/04 09:34:07;;;;;;;;;52.00;43.50;;;;;;;;5081478;28;46134;-79
2022/10/04 09:36:53;;;;;;;;;50.25;42.50;;;;;;;;5081718;28;45320;-78
2022/10/04 09:39:18;;;;;;;;;53.50;44.50;;;;;;;;5082174;27;45390;-78
2022/10/04 09:42:07;;;;;;;;;53.00;44.00;;;;;;;;5081567;28;45354;-79
2022/10/04 09:44:46;;;;;;;;;55.50;45.75;;;;;;;;5079339;28;46476;-79
2022/10/04 09:47:42;;;;;;;;;54.25;45.25;;;;;;;;5080774;27;45525;-79
2022/10/04 09:50:34;;;;;;;;;54.75;45.25;;;;;;;;5082050;27;45511;-79
2022/10/04 09:53:19;;;;;;;;;47.75;41.00;;;;;;;;5081305;28;45249;-79
2022/10/04 09:55:54;;;;;;;;;49.50;42.25;;;;;;;;5061464;28;46281;-78
2022/10/04 09:58:28;;;;;;;;;50.75;43.25;;;;;;;;5078770;28;45346;-78
2022/10/04 10:01:12;;;;;;;;;54.25;45.00;;;;;;;;5079492;28;45257;-79
2022/10/04 10:03:40;;;;;;;;;53.50;45.00;;;;;;;;5080715;28;45225;-79
2022/10/04 10:06:22;;;;;;;;;51.25;44.25;;;;;;;;5060778;28;46142;-78
2022/10/04 10:09:04;;;;;;;;;58.75;47.75;;;;;;;;5079523;28;45222;-79
2022/10/04 10:14:42;;;;;;;;;52.50;44.25;;;;;;;;5080802;28;45413;-78
2022/10/04 10:17:25;;;;;;;;;53.00;44.75;;;;;;;;5077870;27;46093;-79
2022/10/04 10:20:26;;;;;;;;;52.00;43.50;;;;;;;;5079945;28;45209;-79
2022/10/04 10:23:03;;;;;;;;;55.50;46.25;;;;;;;;5016792;28;45492;-79
2022/10/04 10:25:37;;;;;;;;;48.50;41.50;;;;;;;;5069671;28;45356;-80
2022/10/04 10:28:02;;;;;;;;;47.75;40.75;;;;;;;;5081644;28;45260;-78
2022/10/04 10:30:40;;;;;;;;;49.50;42.25;;;;;;;;5085187;28;45272;-78
2022/10/04 10:33:31;;;;;;;;;48.25;40.25;;;;;;;;5085098;28;45306;-78
2022/10/04 10:36:15;;;;;;;;;57.00;47.25;;;;;;;;5085341;28;45297;-79
2022/10/04 10:38:41;;;;;;;;;51.50;44.00;;;;;;;;5078991;28;45922;-79
2022/10/04 10:41:18;;;;;;;;;50.25;43.00;;;;;;;;5060157;28;45437;-80
2022/10/04 10:43:49;;;;;;;;;50.75;43.00;;;;;;;;5078813;28;45209;-79
2022/10/04 10:46:26;;;;;;;;;46.50;40.00;;;;;;;;5079926;28;45422;-78
2022/10/04 10:48:51;;;;;;;;;51.00;42.50;;;;;;;;5062503;28;48134;-78
2022/10/04 10:51:36;;;;;;;;;45.75;39.25;;;;;;;;5081860;28;45336;-78
2022/10/04 10:54:20;;;;;;;;;38.50;34.25;;;;;;;;5064300;28;45394;-79
2022/10/04 10:57:23;;;;;;;;;38.25;34.75;;;;;;;;5081457;28;45532;-79
2022/10/04 11:00:11;;;;;;;;;40.50;36.00;;;;;;;;5079801;27;45323;-80
2022/10/04 11:02:39;;;;;;;;;45.00;39.00;;;;;;;;5081469;28;45345;-81
2022/10/04 11:05:16;;;;;;;;;44.50;38.50;;;;;;;;5079662;28;45343;-78
2022/10/04 11:07:41;;;;;;;;;35.50;32.75;;;;;;;;5081498;28;45296;-80
2022/10/04 11:10:28;;;;;;;;;35.75;32.00;;;;;;;;5082334;28;46285;-81
2022/10/04 11:13:10;;;;;;;;;34.00;32.00;;;;;;;;5082105;28;45330;-81
2022/10/04 11:16:00;;;;;;;;;35.00;32.00;;;;;;;;5068153;28;45427;-80
2022/10/04 11:18:44;;;;;;;;;35.00;33.00;;;;;;;;5077717;27;44950;-79
2022/10/04 11:21:33;;;;;;;;;27.50;27.00;;;;;;;;5085007;27;45268;-78
2022/10/04 11:24:13;;;;;;;;;26.75;26.75;;;;;;;;5084728;28;45434;-81
2022/10/04 11:26:57;;;;;;;;;23.00;23.00;;;;;;;;5068547;28;45464;-79
2022/10/04 11:29:25;;;;;;;;;24.50;24.50;;;;;;;;5086157;28;45310;-80
2022/10/04 11:32:14;;;;;;;;;26.50;26.50;;;;;;;;5083776;27;46382;-79
2022/10/04 11:34:56;;;;;;;;;27.75;27.75;;;;;;;;5082515;27;45172;-79
2022/10/04 11:37:25;;;;;;;;;30.25;30.00;;;;;;;;5082039;28;45984;-80
2022/10/04 11:40:09;;;;;;;;;31.50;30.50;;;;;;;;5080091;28;45485;-78
2022/10/04 11:42:48;;;;;;;;;34.50;32.00;;;;;;;;5080548;28;46427;-79
2022/10/04 11:45:16;;;;;;;;;37.00;34.00;;;;;;;;5081540;27;45468;-79
2022/10/04 11:47:47;;;;;;;;;31.00;30.00;;;;;;;;5079419;28;45352;-79
2022/10/04 11:50:14;;;;;;;;;37.75;34.50;;;;;;;;5081358;28;45442;-79
2022/10/04 11:52:48;;;;;;;;;28.75;28.00;;;;;;;;5064557;28;47907;-78
2022/10/04 11:55:19;;;;;;;;;32.00;31.00;;;;;;;;5062136;28;45312;-80
2022/10/04 11:57:57;;;;;;;;;29.75;28.25;;;;;;;;5077788;28;45370;-81
2022/10/04 12:00:40;;;;;;;;;27.75;27.75;;;;;;;;5078943;28;45448;-79
2022/10/04 12:03:09;;;;;;;;;16.50;15.25;;;;;;;;5060646;28;47876;-79
2022/10/04 12:05:50;;;;;;;;;27.75;27.75;;;;;;;;5078550;28;45421;-78
2022/10/04 12:08:18;;;;;;;;;26.25;26.25;;;;;;;;5078814;28;45244;-78
2022/10/04 12:10:50;;;;;;;;;37.50;34.50;;;;;;;;5077807;28;45315;-79
2022/10/04 12:13:27;;;;;;;;;32.75;31.25;;;;;;;;5077014;28;45469;-79
2022/10/04 12:16:11;;;;;;;;;33.00;31.00;;;;;;;;5079528;28;45311;-78
2022/10/04 12:18:40;;;;;;;;;30.75;29.75;;;;;;;;5080667;28;45541;-79
2022/10/04 12:21:19;;;;;;;;;26.75;26.75;;;;;;;;5080483;27;45379;-80
2022/10/04 12:24:03;;;;;;;;;32.25;30.25;;;;;;;;5077288;28;45307;-77
2022/10/04 12:26:47;;;;;;;;;31.00;30.00;;;;;;;;5076260;28;45284;-77
2022/10/04 12:29:31;;;;;;;;;28.00;28.00;;;;;;;;5076311;28;45240;-78
2022/10/04 12:31:59;;;;;;;;;24.00;24.00;;;;;;;;5079277;28;45602;-80
2022/10/04 12:34:37;;;;;;;;;30.00;28.50;;;;;;;;5076220;28;45290;-81
2022/10/04 12:37:02;;;;;;;;;29.25;27.50;;;;;;;;5057893;28;45482;-79
2022/10/04 12:39:33;;;;;;;;;24.25;24.25;;;;;;;;5076473;28;45444;-78
2022/10/04 12:42:17;;;;;;;;;21.75;21.75;;;;;;;;5059293;28;45538;-78
2022/10/04 12:44:42;;;;;;;;;25.00;25.00;;;;;;;;5057028;28;48055;-79
2022/10/04 12:47:08;;;;;;;;;25.50;25.50;;;;;;;;5076034;28;45320;-77
2022/10/04 12:49:47;;;;;;;;;26.00;26.00;;;;;;;;5057112;28;45252;-80
2022/10/04 12:52:22;;;;;;;;;29.50;29.00;;;;;;;;5077116;28;45497;-78
2022/10/04 12:54:54;;;;;;;;;26.00;26.00;;;;;;;;5077056;28;45516;-80
2022/10/04 12:57:39;;;;;;;;;32.00;29.50;;;;;;;;5077654;28;45528;-81
2022/10/04 13:00:23;;;;;;;;;22.00;22.00;;;;;;;;5077669;27;45358;-78
2022/10/04 13:03:08;;;;;;;;;26.25;25.50;;;;;;;;5076896;28;45604;-81
2022/10/04 13:05:36;;;;;;;;;28.00;28.00;;;;;;;;5080184;28;45313;-78
2022/10/04 13:08:10;;;;;;;;;21.25;21.25;;;;;;;;5078421;28;45251;-78
2022/10/04 13:10:36;;;;;;;;;23.25;23.25;;;;;;;;5077455;28;45205;-80
2022/10/04 13:13:09;;;;;;;;;17.75;17.75;;;;;;;;5058571;28;45244;-79
2022/10/04 13:15:34;;;;;;;;;17.25;17.25;;;;;;;;5062213;28;46742;-78
2022/10/04 13:18:20;;;;;;;;;16.25;16.25;;;;;;;;5079141;28;45502;-78
2022/10/04 13:20:54;;;;;;;;;17.75;17.75;;;;;;;;5081019;28;45242;-78
2022/10/04 13:23:20;;;;;;;;;18.50;18.50;;;;;;;;5080614;28;45401;-78
2022/10/04 13:25:55;;;;;;;;;19.25;19.25;;;;;;;;5079837;28;45356;-78
2022/10/04 13:28:38;;;;;;;;;19.75;19.75;;;;;;;;5079777;27;45192;-80
2022/10/04 13:31:07;;;;;;;;;16.25;16.25;;;;;;;;5080008;28;45437;-79
2022/10/04 13:33:38;;;;;;;;;16.50;16.50;;;;;;;;5078956;28;45465;-79
2022/10/04 13:36:18;;;;;;;;;15.50;15.50;;;;;;;;5078639;28;45413;-77
2022/10/04 13:38:58;;;;;;;;;15.25;15.00;;;;;;;;5060510;28;45406;-79
2022/10/04 13:41:30;;;;;;;;;14.00;12.00;;;;;;;;5078901;28;45358;-77
2022/10/04 13:43:59;;;;;;;;;21.00;21.00;;;;;;;;5079358;28;45350;-79
2022/10/04 13:46:25;;;;;;;;;16.00;16.00;;;;;;;;5079372;28;46155;-79
2022/10/04 13:49:03;;;;;;;;;15.00;15.00;;;;;;;;5079387;28;45163;-78
2022/10/04 13:51:46;;;;;;;;;19.25;19.25;;;;;;;;5080787;28;45350;-78
2022/10/04 13:57:02;;;;;;;;;12.00;12.00;;;;;;;;5082186;28;45310;-79
2022/10/04 13:59:51;;;;;;;;;13.00;13.00;;;;;;;;5084678;28;45365;-80
2022/10/04 14:02:41;;;;;;;;;12.75;12.75;;;;;;;;5078842;28;45284;-80
2022/10/04 14:05:26;;;;;;;;;12.00;12.00;;;;;;;;5079001;28;45462;-78
2022/10/04 14:07:51;;;;;;;;;14.75;14.75;;;;;;;;5078450;28;46224;-78
2022/10/04 14:10:16;;;;;;;;;30.25;29.00;;;;;;;;5078326;28;45453;-79
2022/10/04 14:12:48;;;;;;;;;13.00;13.00;;;;;;;;5078038;28;45331;-78
2022/10/04 14:15:32;;;;;;;;;10.50;10.50;;;;;;;;5059825;28;45498;-77
2022/10/04 14:18:19;;;;;;;;;12.25;12.25;;;;;;;;5077929;28;46230;-78
2022/10/04 14:20:44;;;;;;;;;12.00;12.00;;;;;;;;5077845;28;45359;-78
2022/10/04 14:23:29;;;;;;;;;13.50;13.50;;;;;;;;5077797;28;45314;-78
2022/10/04 14:25:57;;;;;;;;;14.75;14.75;;;;;;;;5077216;28;45271;-77
2022/10/04 14:28:46;;;;;;;;;14.00;14.00;;;;;;;;5077668;28;45632;-80
2022/10/04 14:31:29;;;;;;;;;15.25;15.25;;;;;;;;5048259;28;45427;-78
2022/10/04 14:34:13;;;;;;;;;17.00;17.00;;;;;;;;5059549;28;45348;-78
2022/10/04 14:37:01;;;;;;;;;20.00;20.00;;;;;;;;5077898;28;45191;-81
2022/10/04 14:39:45;;;;;;;;;12.75;12.75;;;;;;;;5077967;27;45285;-79
2022/10/04 14:42:13;;;;;;;;;16.50;16.50;;;;;;;;5059382;28;45251;-78
2022/10/04 14:44:57;;;;;;;;;13.25;13.25;;;;;;;;5078565;28;45339;-79
2022/10/04 14:47:30;;;;;;;;;19.75;19.75;;;;;;;;5059666;28;45703;-79
2022/10/04 14:50:07;;;;;;;;;16.00;16.00;;;;;;;;5078061;28;46315;-79
2022/10/04 14:52:33;;;;;;;;;15.00;15.00;;;;;;;;5078207;28;45485;-79
2022/10/04 14:55:17;;;;;;;;;17.25;16.75;;;;;;;;5077042;28;45332;-78
2022/10/04 14:58:00;;;;;;;;;16.50;16.50;;;;;;;;5077778;28;45627;-78
2022/10/04 15:00:34;;;;;;;;;13.25;13.25;;;;;;;;5059643;28;46635;-78
2022/10/04 15:03:03;;;;;;;;;16.75;16.75;;;;;;;;5077286;28;45533;-78
2022/10/04 15:05:43;;;;;;;;;18.50;17.75;;;;;;;;5079716;28;45276;-79
2022/10/04 15:08:11;;;;;;;;;12.00;12.00;;;;;;;;5081942;28;45607;-78